Time;durP1;ratioP1;P1;durP2;ratioP2;P2;SDS_P1;SDS_P2;PMS_P1;PMS_P2;Temp;Humidity;BMP_temperature;BMP_pressure;BME280_temperature;BME280_humidity;BME280_pressure;Samples;Min_cycle;Max_cycle;Signal;HPM_P1;HPM_P2
2022/01/20 00:01:47;;;;;;;23.13;15.65;;;;;;;;;;5042589;28;20053;-78
2022/01/20 00:04:34;;;;;;;25.20;15.15;;;;;;;;;;5037775;28;20059;-74
2022/01/20 00:23:18;;;;;;;22.60;14.63;;;;;;;;;;5036740;28;20805;-78
2022/01/20 00:28:39;;;;;;;21.05;14.63;;;;;;;;;;5042178;28;20053;-72
2022/01/20 00:33:50;;;;;;;21.55;15.25;;;;;;;;;;5038090;28;20052;-73
2022/01/20 00:38:43;;;;;;;22.33;15.45;;;;;;;;;;5041695;28;20048;-79
2022/01/20 00:41:14;;;;;;;21.35;14.75;;;;;;;;;;5026396;28;20056;-78
2022/01/20 00:43:42;;;;;;;20.42;14.30;;;;;;;;;;5035770;28;20414;-76
2022/01/20 00:46:08;;;;;;;19.95;14.43;;;;;;;;;;5042546;28;20307;-77
2022/01/20 00:48:34;;;;;;;19.63;14.18;;;;;;;;;;5043641;28;20072;-76
2022/01/20 00:51:01;;;;;;;19.25;13.68;;;;;;;;;;5044641;28;20053;-78
2022/01/20 00:53:27;;;;;;;21.13;14.13;;;;;;;;;;5038190;28;20485;-75
2022/01/20 00:55:54;;;;;;;24.98;14.48;;;;;;;;;;5043578;28;20067;-72
2022/01/20 00:58:20;;;;;;;23.38;14.35;;;;;;;;;;5044384;28;20443;-81
2022/01/20 01:00:46;;;;;;;19.45;13.13;;;;;;;;;;5046945;28;20048;-74
2022/01/20 01:03:13;;;;;;;24.98;13.88;;;;;;;;;;5041105;28;20044;-79
2022/01/20 01:05:53;;;;;;;19.40;13.20;;;;;;;;;;5044926;28;20052;-71
2022/01/20 01:08:19;;;;;;;22.08;12.82;;;;;;;;;;5025435;28;20155;-72
2022/01/20 01:10:49;;;;;;;21.33;12.55;;;;;;;;;;5044186;28;20044;-69
2022/01/20 01:13:17;;;;;;;18.73;12.55;;;;;;;;;;5039229;28;20049;-70
2022/01/20 01:15:47;;;;;;;16.50;12.43;;;;;;;;;;5044267;28;20052;-74
2022/01/20 01:23:31;;;;;;;19.95;12.50;;;;;;;;;;5039765;28;20052;-75
2022/01/20 01:25:59;;;;;;;19.83;12.48;;;;;;;;;;5042861;28;20527;-78
2022/01/20 01:28:27;;;;;;;15.32;11.32;;;;;;;;;;5024545;28;20056;-75
2022/01/20 01:33:20;;;;;;;16.20;10.75;;;;;;;;;;5040023;28;20106;-73
2022/01/20 01:35:54;;;;;;;17.23;12.23;;;;;;;;;;5042595;28;20053;-75
2022/01/20 01:38:41;;;;;;;15.65;10.70;;;;;;;;;;5040607;28;20106;-73
2022/01/20 01:41:14;;;;;;;16.52;10.82;;;;;;;;;;5029356;28;20063;-74
2022/01/20 01:43:44;;;;;;;17.10;10.25;;;;;;;;;;5039471;28;20044;-74
2022/01/20 01:46:14;;;;;;;14.30;10.27;;;;;;;;;;5043266;28;20132;-74
2022/01/20 01:48:43;;;;;;;14.40;10.88;;;;;;;;;;5038132;28;20032;-74
2022/01/20 01:51:10;;;;;;;17.33;10.50;;;;;;;;;;5044056;28;20670;-71
2022/01/20 01:53:38;;;;;;;15.73;10.80;;;;;;;;;;5034858;28;20395;-74
2022/01/20 01:56:05;;;;;;;16.95;11.40;;;;;;;;;;5043453;28;20398;-76
2022/01/20 01:58:31;;;;;;;17.13;11.30;;;;;;;;;;5042755;28;20082;-74
2022/01/20 02:00:58;;;;;;;15.20;11.18;;;;;;;;;;5042137;28;20052;-75
2022/01/20 02:03:25;;;;;;;15.18;11.52;;;;;;;;;;5034618;28;20048;-78
2022/01/20 02:08:33;;;;;;;15.77;11.30;;;;;;;;;;5039481;28;20249;-75
2022/01/20 02:19:18;;;;;;;17.15;10.63;;;;;;;;;;5046096;28;20174;-75
2022/01/20 02:21:52;;;;;;;19.02;11.13;;;;;;;;;;5044863;28;20048;-68
2022/01/20 02:24:19;;;;;;;16.10;10.90;;;;;;;;;;5041911;28;20044;-68
2022/01/20 02:26:46;;;;;;;16.95;10.88;;;;;;;;;;5044856;28;20099;-71
2022/01/20 02:29:13;;;;;;;15.63;10.70;;;;;;;;;;5042721;28;20048;-79
2022/01/20 02:31:39;;;;;;;15.65;10.55;;;;;;;;;;5043392;28;20040;-78
2022/01/20 02:34:11;;;;;;;15.77;10.13;;;;;;;;;;5035270;28;20040;-77
2022/01/20 02:36:40;;;;;;;13.90;10.43;;;;;;;;;;5041909;28;20314;-69
2022/01/20 02:39:27;;;;;;;16.95;10.10;;;;;;;;;;5045181;28;20467;-75
2022/01/20 02:44:51;;;;;;;16.13;10.40;;;;;;;;;;5044182;28;20308;-71
2022/01/20 02:47:18;;;;;;;18.40;10.85;;;;;;;;;;5041229;28;20386;-75
2022/01/20 02:49:45;;;;;;;16.38;11.10;;;;;;;;;;5039560;28;20505;-78
2022/01/20 02:52:11;;;;;;;17.48;10.70;;;;;;;;;;5043888;28;20048;-74
2022/01/20 02:54:38;;;;;;;16.58;10.88;;;;;;;;;;5041978;28;20374;-76
2022/01/20 02:57:05;;;;;;;15.68;10.25;;;;;;;;;;5045113;28;20498;-76
2022/01/20 02:59:34;;;;;;;15.98;10.70;;;;;;;;;;5044738;28;20362;-79
2022/01/20 03:02:02;;;;;;;16.20;9.50;;;;;;;;;;5043189;28;20084;-78
2022/01/20 03:04:30;;;;;;;14.70;10.00;;;;;;;;;;5042079;28;20060;-71
2022/01/20 03:06:56;;;;;;;17.00;10.20;;;;;;;;;;5026187;28;20071;-79
2022/01/20 03:09:23;;;;;;;16.77;9.77;;;;;;;;;;5044540;28;20593;-77
2022/01/20 03:11:49;;;;;;;14.00;9.88;;;;;;;;;;5046343;28;20556;-70
2022/01/20 03:14:17;;;;;;;15.85;9.95;;;;;;;;;;5043786;28;20045;-74
2022/01/20 03:16:45;;;;;;;16.00;9.60;;;;;;;;;;5043860;28;20561;-76
2022/01/20 03:19:12;;;;;;;15.50;9.18;;;;;;;;;;5042161;28;20899;-74
2022/01/20 03:21:40;;;;;;;14.32;9.77;;;;;;;;;;5043091;28;20052;-78
2022/01/20 03:24:08;;;;;;;11.57;9.50;;;;;;;;;;5040798;28;20049;-73
2022/01/20 03:26:35;;;;;;;12.55;9.32;;;;;;;;;;5043352;28;20048;-76
2022/01/20 03:29:02;;;;;;;14.55;9.60;;;;;;;;;;5042179;28;20542;-74
2022/01/20 03:31:30;;;;;;;14.27;9.10;;;;;;;;;;5024089;28;20395;-69
2022/01/20 03:33:57;;;;;;;16.20;9.48;;;;;;;;;;5036602;28;20142;-72
2022/01/20 03:36:23;;;;;;;14.52;9.23;;;;;;;;;;5041103;28;20533;-73
2022/01/20 03:38:50;;;;;;;20.33;10.20;;;;;;;;;;5040894;28;20481;-72
2022/01/20 03:41:16;;;;;;;14.00;8.73;;;;;;;;;;5041259;28;20057;-76
2022/01/20 03:43:43;;;;;;;13.52;8.95;;;;;;;;;;5035670;28;20410;-74
2022/01/20 03:46:12;;;;;;;13.48;9.82;;;;;;;;;;5042506;28;20048;-71
2022/01/20 03:48:55;;;;;;;11.85;9.18;;;;;;;;;;5023848;28;20113;-72
2022/01/20 03:51:24;;;;;;;15.57;10.35;;;;;;;;;;5040937;28;20071;-75
2022/01/20 03:53:52;;;;;;;15.63;9.65;;;;;;;;;;5036809;28;20131;-73
2022/01/20 03:56:19;;;;;;;13.13;8.68;;;;;;;;;;5041318;28;20057;-74
2022/01/20 03:58:46;;;;;;;16.98;9.07;;;;;;;;;;5039715;28;20048;-71
2022/01/20 04:01:17;;;;;;;14.88;8.98;;;;;;;;;;5043179;28;20335;-73
2022/01/20 04:03:43;;;;;;;16.42;8.63;;;;;;;;;;5034602;28;20059;-77
2022/01/20 04:06:35;;;;;;;14.02;8.20;;;;;;;;;;5111691;27;20401;-79
2022/01/20 04:09:02;;;;;;;13.65;8.98;;;;;;;;;;5110191;27;20051;-78
2022/01/20 04:11:28;;;;;;;12.02;8.50;;;;;;;;;;5112835;27;20050;-70
2022/01/20 04:13:55;;;;;;;13.45;9.23;;;;;;;;;;5100868;27;20055;-68
2022/01/20 04:16:33;;;;;;;18.30;8.95;;;;;;;;;;5092428;27;20479;-71
2022/01/20 04:19:02;;;;;;;13.52;8.55;;;;;;;;;;5109476;27;20051;-75
2022/01/20 04:21:30;;;;;;;11.90;8.38;;;;;;;;;;5107694;27;20051;-67
2022/01/20 04:23:58;;;;;;;12.60;8.48;;;;;;;;;;5106487;27;20063;-69
2022/01/20 04:26:25;;;;;;;11.82;8.35;;;;;;;;;;5110590;27;20040;-70
2022/01/20 04:28:56;;;;;;;14.68;8.13;;;;;;;;;;5105952;27;20345;-72
2022/01/20 04:31:27;;;;;;;14.32;8.20;;;;;;;;;;5110974;27;20051;-70
2022/01/20 04:33:56;;;;;;;10.60;7.55;;;;;;;;;;5102998;27;20055;-73
2022/01/20 04:36:24;;;;;;;12.57;8.35;;;;;;;;;;5108258;27;20078;-73
2022/01/20 04:38:50;;;;;;;12.98;7.75;;;;;;;;;;5109142;27;20070;-77
2022/01/20 04:41:17;;;;;;;10.32;7.55;;;;;;;;;;5112253;27;20127;-73
2022/01/20 04:43:43;;;;;;;13.82;8.18;;;;;;;;;;5104443;27;20179;-75
2022/01/20 04:59:30;;;;;;;13.15;8.02;;;;;;;;;;5106882;27;20059;-76
2022/01/20 05:01:56;;;;;;;12.00;8.07;;;;;;;;;;5100685;27;20553;-74
2022/01/20 05:04:24;;;;;;;9.32;7.32;;;;;;;;;;5100133;27;20055;-69
2022/01/20 05:06:54;;;;;;;12.60;7.47;;;;;;;;;;5108109;27;20319;-68
2022/01/20 05:09:21;;;;;;;14.20;8.48;;;;;;;;;;5090532;27;20408;-74
2022/01/20 05:12:02;;;;;;;15.90;8.48;;;;;;;;;;5107952;27;20441;-70
2022/01/20 05:14:30;;;;;;;16.60;8.20;;;;;;;;;;5106256;27;20058;-68
2022/01/20 05:16:57;;;;;;;11.35;8.07;;;;;;;;;;5098647;27;20480;-75
2022/01/20 05:19:24;;;;;;;13.88;7.72;;;;;;;;;;5091785;27;20054;-76
2022/01/20 05:21:50;;;;;;;11.90;7.45;;;;;;;;;;5092382;27;20581;-74
2022/01/20 05:24:17;;;;;;;10.85;7.50;;;;;;;;;;5087277;27;20138;-74
2022/01/20 05:26:43;;;;;;;11.82;7.85;;;;;;;;;;5090857;27;20039;-79
2022/01/20 05:29:09;;;;;;;12.70;7.32;;;;;;;;;;5094256;27;20047;-76
2022/01/20 05:31:35;;;;;;;9.70;7.22;;;;;;;;;;5094479;27;21301;-76
2022/01/20 05:34:02;;;;;;;11.25;7.00;;;;;;;;;;5089305;27;20047;-72
2022/01/20 05:36:28;;;;;;;12.40;7.32;;;;;;;;;;5091629;27;20059;-72
2022/01/20 05:38:54;;;;;;;10.43;6.72;;;;;;;;;;5097847;27;20051;-71
2022/01/20 05:41:20;;;;;;;10.15;7.22;;;;;;;;;;5097699;27;20116;-75
2022/01/20 05:43:47;;;;;;;10.32;6.25;;;;;;;;;;5088668;27;21283;-77
2022/01/20 05:46:16;;;;;;;9.27;6.40;;;;;;;;;;5097037;27;20051;-73
2022/01/20 05:48:47;;;;;;;9.32;6.63;;;;;;;;;;5092126;27;20151;-78
2022/01/20 05:51:14;;;;;;;8.63;6.60;;;;;;;;;;5094032;27;20395;-76
2022/01/20 05:53:41;;;;;;;12.40;7.40;;;;;;;;;;5087941;27;20306;-77
2022/01/20 05:56:07;;;;;;;14.50;7.07;;;;;;;;;;5093114;27;20696;-75
2022/01/20 05:58:36;;;;;;;13.30;7.45;;;;;;;;;;5093165;27;20051;-75
2022/01/20 06:01:05;;;;;;;13.95;6.88;;;;;;;;;;5092401;27;20139;-77
2022/01/20 06:03:37;;;;;;;9.82;6.40;;;;;;;;;;5088555;27;20058;-75
2022/01/20 06:06:10;;;;;;;16.02;7.05;;;;;;;;;;5096667;27;20207;-77
2022/01/20 06:08:38;;;;;;;10.35;6.68;;;;;;;;;;5091895;27;20061;-78
2022/01/20 06:11:05;;;;;;;16.50;7.13;;;;;;;;;;5093605;27;20497;-78
2022/01/20 06:13:31;;;;;;;11.07;6.85;;;;;;;;;;5087294;27;20055;-73
2022/01/20 06:15:57;;;;;;;10.45;6.78;;;;;;;;;;5096906;27;20651;-73
2022/01/20 06:18:24;;;;;;;13.90;7.10;;;;;;;;;;5089987;27;20055;-72
2022/01/20 06:20:50;;;;;;;16.20;7.57;;;;;;;;;;5076573;27;20048;-75
2022/01/20 06:23:18;;;;;;;19.65;6.65;;;;;;;;;;5071549;27;20593;-76
2022/01/20 06:25:44;;;;;;;13.68;7.28;;;;;;;;;;5096112;27;20344;-75
2022/01/20 06:28:10;;;;;;;13.88;6.70;;;;;;;;;;5093655;27;20047;-76
2022/01/20 06:30:37;;;;;;;11.30;6.75;;;;;;;;;;5094538;27;20050;-76
2022/01/20 06:33:04;;;;;;;13.60;6.85;;;;;;;;;;5087411;27;20055;-77
2022/01/20 06:35:31;;;;;;;13.18;6.40;;;;;;;;;;5095081;27;20733;-68
2022/01/20 06:37:57;;;;;;;10.70;6.47;;;;;;;;;;5091613;27;20055;-72
2022/01/20 06:40:24;;;;;;;9.73;6.30;;;;;;;;;;5091125;27;20066;-75
2022/01/20 06:42:51;;;;;;;13.50;6.80;;;;;;;;;;5086111;27;20215;-76
2022/01/20 06:45:20;;;;;;;11.82;6.82;;;;;;;;;;5092313;27;20126;-78
2022/01/20 06:47:46;;;;;;;14.30;6.95;;;;;;;;;;5073221;27;20069;-69
2022/01/20 06:50:13;;;;;;;9.73;6.72;;;;;;;;;;5090615;27;20055;-73
2022/01/20 06:52:40;;;;;;;9.73;6.30;;;;;;;;;;5085871;27;20138;-75
2022/01/20 06:55:10;;;;;;;11.23;6.22;;;;;;;;;;5076560;27;20928;-79
2022/01/20 06:57:38;;;;;;;11.95;6.55;;;;;;;;;;5088937;27;20056;-77
2022/01/20 07:00:13;;;;;;;12.40;6.63;;;;;;;;;;5094119;27;20218;-77
2022/01/20 07:02:39;;;;;;;12.77;6.70;;;;;;;;;;5070437;27;20563;-76
2022/01/20 07:05:07;;;;;;;14.82;6.63;;;;;;;;;;5090347;27;20065;-76
2022/01/20 07:07:34;;;;;;;16.98;7.38;;;;;;;;;;5094194;27;20086;-73
2022/01/20 07:10:00;;;;;;;9.45;6.30;;;;;;;;;;5096118;27;20151;-72
2022/01/20 07:12:27;;;;;;;12.93;7.40;;;;;;;;;;5090867;27;20054;-78
2022/01/20 07:14:53;;;;;;;11.95;7.22;;;;;;;;;;5089108;27;20059;-69
2022/01/20 07:17:19;;;;;;;10.52;6.80;;;;;;;;;;5091794;27;20051;-80
2022/01/20 07:19:46;;;;;;;12.82;7.25;;;;;;;;;;5093167;27;20485;-77
2022/01/20 07:22:12;;;;;;;12.98;6.78;;;;;;;;;;5078066;27;20077;-70
2022/01/20 07:24:38;;;;;;;13.55;7.07;;;;;;;;;;5095091;27;20057;-73
2022/01/20 07:27:05;;;;;;;12.45;6.82;;;;;;;;;;5094941;27;20060;-76
2022/01/20 07:29:31;;;;;;;11.68;7.00;;;;;;;;;;5092559;27;20161;-76
2022/01/20 07:31:59;;;;;;;19.02;7.70;;;;;;;;;;5089586;27;20378;-70
2022/01/20 07:34:25;;;;;;;16.00;7.20;;;;;;;;;;5088127;27;20387;-69
2022/01/20 07:36:52;;;;;;;20.67;7.75;;;;;;;;;;5080180;27;20515;-80
2022/01/20 07:39:18;;;;;;;12.63;7.07;;;;;;;;;;5088074;27;20178;-72
2022/01/20 07:41:45;;;;;;;18.95;9.43;;;;;;;;;;5095270;27;20124;-74
2022/01/20 07:44:11;;;;;;;14.63;7.95;;;;;;;;;;5098546;27;20520;-77
2022/01/20 07:46:37;;;;;;;13.80;7.72;;;;;;;;;;5101932;27;20043;-71
2022/01/20 07:49:04;;;;;;;17.38;7.70;;;;;;;;;;5105898;27;20044;-81
2022/01/20 07:51:30;;;;;;;19.02;8.43;;;;;;;;;;5104150;27;20140;-80
2022/01/20 07:53:57;;;;;;;15.50;7.50;;;;;;;;;;5109715;27;20051;-69
2022/01/20 07:56:23;;;;;;;17.00;7.75;;;;;;;;;;5090693;27;20048;-82
2022/01/20 07:58:49;;;;;;;13.98;7.82;;;;;;;;;;5106918;28;20122;-70
2022/01/20 08:01:16;;;;;;;15.00;7.90;;;;;;;;;;5101516;28;20512;-71
2022/01/20 08:03:43;;;;;;;17.05;8.20;;;;;;;;;;5105297;27;20082;-76
2022/01/20 08:06:09;;;;;;;15.80;8.10;;;;;;;;;;5107747;28;20108;-72
2022/01/20 08:08:36;;;;;;;17.65;7.60;;;;;;;;;;5105917;28;20228;-77
2022/01/20 08:11:02;;;;;;;25.88;10.30;;;;;;;;;;5105308;27;20393;-75
2022/01/20 08:13:28;;;;;;;18.80;7.53;;;;;;;;;;5103020;28;20043;-85
2022/01/20 08:15:55;;;;;;;18.48;8.23;;;;;;;;;;5100360;28;20067;-70
2022/01/20 08:18:21;;;;;;;18.20;7.68;;;;;;;;;;5104131;27;20048;-76
2022/01/20 08:20:47;;;;;;;15.07;7.28;;;;;;;;;;5097474;28;20044;-74
2022/01/20 08:23:13;;;;;;;15.02;7.40;;;;;;;;;;5103021;27;20047;-80
2022/01/20 08:25:40;;;;;;;15.05;7.60;;;;;;;;;;5106688;28;20043;-71
2022/01/20 08:28:07;;;;;;;20.30;7.47;;;;;;;;;;5107134;28;20146;-80
2022/01/20 08:30:34;;;;;;;23.67;7.18;;;;;;;;;;5106360;28;20496;-74
2022/01/20 08:33:00;;;;;;;17.05;7.95;;;;;;;;;;5108397;28;20116;-74
2022/01/20 08:35:31;;;;;;;16.38;7.70;;;;;;;;;;5113950;28;20051;-73
2022/01/20 08:37:59;;;;;;;20.98;7.85;;;;;;;;;;5115740;28;20143;-70
2022/01/20 08:40:27;;;;;;;32.28;8.65;;;;;;;;;;5111696;27;20297;-70
2022/01/20 08:42:55;;;;;;;22.35;9.68;;;;;;;;;;5098658;28;20048;-75
2022/01/20 08:45:26;;;;;;;20.67;8.70;;;;;;;;;;5117474;28;20051;-77
2022/01/20 08:47:55;;;;;;;15.70;8.25;;;;;;;;;;5110178;28;20430;-69
2022/01/20 08:50:24;;;;;;;20.08;9.07;;;;;;;;;;5112025;27;20083;-82
2022/01/20 08:52:51;;;;;;;24.73;8.57;;;;;;;;;;5107906;27;20054;-71
2022/01/20 08:55:19;;;;;;;24.05;8.57;;;;;;;;;;5111873;27;20373;-75
2022/01/20 08:57:46;;;;;;;28.77;9.55;;;;;;;;;;5108847;27;20054;-70
2022/01/20 09:00:14;;;;;;;26.45;9.40;;;;;;;;;;5108234;27;20448;-71
2022/01/20 09:02:40;;;;;;;23.13;8.77;;;;;;;;;;5106511;27;20467;-80
2022/01/20 09:05:06;;;;;;;20.80;8.10;;;;;;;;;;5108509;27;20077;-75
2022/01/20 09:07:33;;;;;;;19.05;7.90;;;;;;;;;;5107005;27;20416;-71
2022/01/20 09:10:03;;;;;;;18.95;7.15;;;;;;;;;;5110000;27;20418;-69
2022/01/20 09:15:28;;;;;;;23.73;8.40;;;;;;;;;;5107149;27;20070;-78
2022/01/20 09:17:56;;;;;;;27.55;9.98;;;;;;;;;;5107490;27;20047;-71
2022/01/20 09:20:23;;;;;;;15.57;8.15;;;;;;;;;;5107453;27;20053;-73
2022/01/20 09:22:51;;;;;;;23.80;8.60;;;;;;;;;;5103917;27;20048;-78
2022/01/20 09:25:18;;;;;;;16.92;9.77;;;;;;;;;;5112569;27;20051;-71
2022/01/20 09:27:44;;;;;;;18.67;9.15;;;;;;;;;;5108808;27;20420;-75
2022/01/20 09:30:17;;;;;;;23.92;9.80;;;;;;;;;;5109279;27;20073;-79
2022/01/20 09:32:46;;;;;;;21.02;9.20;;;;;;;;;;5107368;27;20048;-87
2022/01/20 09:35:13;;;;;;;15.88;9.63;;;;;;;;;;5109890;27;20047;-72
2022/01/20 09:37:40;;;;;;;16.50;9.38;;;;;;;;;;5112821;27;20116;-74
2022/01/20 09:40:09;;;;;;;23.77;9.57;;;;;;;;;;5091767;27;20142;-80
2022/01/20 09:42:36;;;;;;;21.83;10.38;;;;;;;;;;5104007;27;20380;-85
2022/01/20 09:45:03;;;;;;;19.90;9.30;;;;;;;;;;5109229;27;20491;-71
2022/01/20 09:47:29;;;;;;;18.02;9.00;;;;;;;;;;5103147;27;20083;-69
2022/01/20 09:49:56;;;;;;;25.77;9.55;;;;;;;;;;5104402;27;20047;-72
2022/01/20 09:52:24;;;;;;;20.00;10.13;;;;;;;;;;5105067;27;20124;-81
2022/01/20 09:54:50;;;;;;;18.90;9.23;;;;;;;;;;5102211;27;20047;-70
2022/01/20 09:57:17;;;;;;;25.45;9.13;;;;;;;;;;5099914;27;20047;-73
2022/01/20 09:59:43;;;;;;;20.15;9.57;;;;;;;;;;5088699;27;20055;-83
2022/01/20 10:02:17;;;;;;;20.35;8.82;;;;;;;;;;5104599;27;20067;-82
2022/01/20 10:04:43;;;;;;;17.80;8.80;;;;;;;;;;5101829;27;20369;-83
2022/01/20 10:07:13;;;;;;;17.42;8.40;;;;;;;;;;5103535;27;20058;-74
2022/01/20 10:09:43;;;;;;;21.75;8.57;;;;;;;;;;5101152;27;20264;-76
2022/01/20 10:12:12;;;;;;;19.00;9.02;;;;;;;;;;5103372;27;20043;-79
2022/01/20 10:14:47;;;;;;;21.25;8.20;;;;;;;;;;5109796;27;20075;-76
2022/01/20 10:17:19;;;;;;;17.83;7.40;;;;;;;;;;5101773;27;20055;-85
2022/01/20 10:19:46;;;;;;;22.73;7.97;;;;;;;;;;5103490;27;20047;-78
2022/01/20 10:22:16;;;;;;;21.75;8.90;;;;;;;;;;5098387;27;20147;-74
2022/01/20 10:25:13;;;;;;;16.05;7.97;;;;;;;;;;5098145;27;20043;-75
2022/01/20 10:27:51;;;;;;;15.75;7.82;;;;;;;;;;5100246;27;20054;-74
2022/01/20 10:30:20;;;;;;;17.58;7.82;;;;;;;;;;5101249;27;20039;-78
2022/01/20 10:32:49;;;;;;;11.40;7.32;;;;;;;;;;5078595;27;20501;-71
2022/01/20 10:35:18;;;;;;;20.63;7.25;;;;;;;;;;5102624;27;20051;-80
2022/01/20 10:38:17;;;;;;;16.67;7.10;;;;;;;;;;5105261;27;20043;-79
2022/01/20 10:40:52;;;;;;;15.68;7.47;;;;;;;;;;5100878;27;20086;-77
2022/01/20 10:43:35;;;;;;;14.82;7.03;;;;;;;;;;5096580;27;20048;-73
2022/01/20 10:46:08;;;;;;;14.40;7.63;;;;;;;;;;5104090;27;20197;-78
2022/01/20 10:48:35;;;;;;;17.63;6.95;;;;;;;;;;5096717;27;20967;-74
2022/01/20 10:51:01;;;;;;;12.60;7.28;;;;;;;;;;5098798;27;20388;-79
2022/01/20 10:53:28;;;;;;;14.02;7.43;;;;;;;;;;5101008;27;20419;-72
2022/01/20 10:56:05;;;;;;;16.45;8.73;;;;;;;;;;5099353;27;20417;-74
2022/01/20 10:58:31;;;;;;;16.92;7.57;;;;;;;;;;5095977;27;20595;-80
2022/01/20 11:00:59;;;;;;;19.23;8.55;;;;;;;;;;5100203;27;20829;-68
2022/01/20 11:03:28;;;;;;;15.88;8.40;;;;;;;;;;5098633;27;20055;-69
2022/01/20 11:05:56;;;;;;;14.90;8.13;;;;;;;;;;5097995;27;20138;-70
2022/01/20 11:08:23;;;;;;;19.85;9.18;;;;;;;;;;5098123;27;20059;-73
2022/01/20 11:10:51;;;;;;;14.80;8.43;;;;;;;;;;5093584;27;20044;-72
2022/01/20 11:13:22;;;;;;;14.15;8.85;;;;;;;;;;5092839;27;20062;-69
2022/01/20 11:15:48;;;;;;;14.75;8.23;;;;;;;;;;5079551;27;20515;-68
2022/01/20 11:18:15;;;;;;;15.25;8.20;;;;;;;;;;5096066;27;20516;-71
2022/01/20 11:20:45;;;;;;;21.73;8.20;;;;;;;;;;5104236;27;20131;-74
2022/01/20 11:23:13;;;;;;;18.80;8.05;;;;;;;;;;5095079;27;20396;-76
2022/01/20 11:25:43;;;;;;;16.55;8.88;;;;;;;;;;5084297;27;20433;-75
2022/01/20 11:28:15;;;;;;;14.05;8.80;;;;;;;;;;5095850;27;20138;-76
2022/01/20 11:31:09;;;;;;;20.17;8.43;;;;;;;;;;5092263;27;20048;-78
2022/01/20 11:33:41;;;;;;;15.82;9.63;;;;;;;;;;5097210;27;20059;-76
2022/01/20 11:36:26;;;;;;;15.68;9.27;;;;;;;;;;5098932;27;20083;-73
2022/01/20 11:38:58;;;;;;;;;;;;;;;;;;5101557;27;20108;-73
2022/01/20 11:41:52;;;;;;;14.98;8.13;;;;;;;;;;5098837;27;20369;-77
2022/01/20 11:44:26;;;;;;;11.70;7.85;;;;;;;;;;5091265;27;20067;-72
2022/01/20 11:47:02;;;;;;;18.75;8.48;;;;;;;;;;5100841;27;20047;-67
2022/01/20 11:49:39;;;;;;;15.27;9.40;;;;;;;;;;5100541;27;20587;-69
2022/01/20 11:52:06;;;;;;;13.45;8.43;;;;;;;;;;5099824;27;20063;-82
2022/01/20 11:54:35;;;;;;;19.10;8.93;;;;;;;;;;5091477;27;20589;-71
2022/01/20 11:57:20;;;;;;;15.52;8.45;;;;;;;;;;5096638;28;20083;-78
2022/01/20 11:59:50;;;;;;;11.85;7.55;;;;;;;;;;5095286;27;20095;-72
2022/01/20 12:02:45;;;;;;;10.30;6.07;;;;;;;;;;5099385;27;21231;-75
2022/01/20 12:05:27;;;;;;;13.93;6.93;;;;;;;;;;5091781;28;20095;-73
2022/01/20 12:08:22;;;;;;;12.45;7.30;;;;;;;;;;5097967;28;20161;-71
2022/01/20 12:11:07;;;;;;;12.45;6.60;;;;;;;;;;5095794;28;21290;-65
2022/01/20 12:13:49;;;;;;;11.18;7.18;;;;;;;;;;5095525;28;20062;-81
2022/01/20 12:16:19;;;;;;;11.73;6.55;;;;;;;;;;5096422;28;20059;-74
2022/01/20 12:18:54;;;;;;;11.80;6.35;;;;;;;;;;5102436;28;20035;-72
2022/01/20 12:21:21;;;;;;;;;;;;;;;;;;5100880;28;20059;-70
2022/01/20 12:23:50;;;;;;;13.13;5.68;;;;;;;;;;5096547;27;19942;-69
2022/01/20 12:26:17;;;;;;;10.98;6.00;;;;;;;;;;5101317;27;20035;-71
2022/01/20 12:28:43;;;;;;;13.27;6.03;;;;;;;;;;5104614;27;20140;-77
2022/01/20 12:31:12;;;;;;;9.70;6.00;;;;;;;;;;5103735;27;20047;-79
2022/01/20 12:33:45;;;;;;;9.38;5.65;;;;;;;;;;5099627;27;20096;-76
2022/01/20 12:36:17;;;;;;;10.85;6.50;;;;;;;;;;5105208;27;20047;-71
2022/01/20 12:38:49;;;;;;;9.95;6.07;;;;;;;;;;5102593;27;20088;-74
2022/01/20 12:41:22;;;;;;;9.70;5.43;;;;;;;;;;5086301;27;20043;-67
2022/01/20 12:43:56;;;;;;;10.20;5.90;;;;;;;;;;5098273;27;20047;-72
2022/01/20 12:46:27;;;;;;;9.80;5.40;;;;;;;;;;5100833;27;20147;-77
2022/01/20 12:48:58;;;;;;;12.25;6.65;;;;;;;;;;5101593;27;20094;-68
2022/01/20 12:51:53;;;;;;;11.85;5.63;;;;;;;;;;5099788;27;20135;-78
2022/01/20 12:54:26;;;;;;;12.73;5.53;;;;;;;;;;5096341;27;20071;-74
2022/01/20 12:57:05;;;;;;;7.87;4.50;;;;;;;;;;5084568;27;20155;-72
2022/01/20 12:59:34;;;;;;;12.00;4.97;;;;;;;;;;5104257;27;20043;-73
2022/01/20 13:02:06;;;;;;;7.57;3.88;;;;;;;;;;5103666;27;20055;-79
2022/01/20 13:04:36;;;;;;;8.05;4.82;;;;;;;;;;5100899;27;20055;-77
2022/01/20 13:07:03;;;;;;;12.05;5.43;;;;;;;;;;5106061;27;20055;-80
2022/01/20 13:09:49;;;;;;;11.70;5.25;;;;;;;;;;5100259;27;20493;-68
2022/01/20 13:12:19;;;;;;;7.93;5.32;;;;;;;;;;5105962;27;20047;-83
2022/01/20 13:14:50;;;;;;;13.48;5.35;;;;;;;;;;5080645;27;20055;-72
2022/01/20 13:17:26;;;;;;;10.55;4.78;;;;;;;;;;5107712;27;20388;-75
2022/01/20 13:19:55;;;;;;;10.50;4.90;;;;;;;;;;5104912;27;20059;-67
2022/01/20 13:22:37;;;;;;;7.57;4.97;;;;;;;;;;5102549;27;20047;-79
2022/01/20 13:25:15;;;;;;;9.70;4.05;;;;;;;;;;5101970;27;20055;-77
2022/01/20 13:28:02;;;;;;;8.63;4.53;;;;;;;;;;5097918;27;20051;-75
2022/01/20 13:30:47;;;;;;;11.00;4.65;;;;;;;;;;5103104;27;20058;-82
2022/01/20 13:33:22;;;;;;;7.45;4.32;;;;;;;;;;5095841;27;21208;-80
2022/01/20 13:36:00;;;;;;;6.35;4.03;;;;;;;;;;5103539;27;20601;-70
2022/01/20 13:38:47;;;;;;;9.93;6.20;;;;;;;;;;5100964;27;20055;-75
2022/01/20 13:41:19;;;;;;;8.07;3.67;;;;;;;;;;5101573;27;20067;-77
2022/01/20 13:46:40;;;;;;;7.82;4.63;;;;;;;;;;5107574;27;20043;-83
2022/01/20 13:49:14;;;;;;;7.05;3.75;;;;;;;;;;5105946;27;20119;-79
2022/01/20 13:51:40;;;;;;;8.82;4.30;;;;;;;;;;5105107;27;20130;-72
2022/01/20 13:54:08;;;;;;;10.65;4.50;;;;;;;;;;5096635;27;20048;-85
2022/01/20 13:56:35;;;;;;;8.77;4.30;;;;;;;;;;5108948;27;20593;-73
2022/01/20 13:59:08;;;;;;;10.30;5.72;;;;;;;;;;5103716;27;20078;-76
2022/01/20 14:01:37;;;;;;;9.82;4.60;;;;;;;;;;5104440;27;20059;-78
2022/01/20 14:04:04;;;;;;;8.32;4.43;;;;;;;;;;5098938;27;20071;-74
2022/01/20 14:06:30;;;;;;;10.65;5.00;;;;;;;;;;5101672;27;20055;-75
2022/01/20 14:08:57;;;;;;;14.32;5.25;;;;;;;;;;5103996;27;20107;-80
2022/01/20 14:11:25;;;;;;;11.18;5.32;;;;;;;;;;5098519;27;20151;-73
2022/01/20 14:13:52;;;;;;;8.55;5.50;;;;;;;;;;5094881;27;20102;-69
2022/01/20 14:16:18;;;;;;;11.10;5.07;;;;;;;;;;5097714;27;20054;-70
2022/01/20 14:18:46;;;;;;;11.73;4.95;;;;;;;;;;5101099;27;20047;-78
2022/01/20 14:21:15;;;;;;;11.80;5.35;;;;;;;;;;5103458;27;20122;-82
2022/01/20 14:23:42;;;;;;;10.35;5.18;;;;;;;;;;5094075;27;20043;-74
2022/01/20 14:26:11;;;;;;;9.90;4.90;;;;;;;;;;5103143;27;20042;-81
2022/01/20 14:28:38;;;;;;;10.55;5.45;;;;;;;;;;5102094;27;20139;-72
2022/01/20 14:31:04;;;;;;;12.45;6.28;;;;;;;;;;5101660;27;20536;-74
2022/01/20 14:33:32;;;;;;;8.55;5.10;;;;;;;;;;5093106;27;20062;-74
2022/01/20 14:35:58;;;;;;;9.63;5.50;;;;;;;;;;5103347;27;20674;-70
2022/01/20 14:38:25;;;;;;;14.40;5.22;;;;;;;;;;5102216;27;20585;-71
2022/01/20 14:40:55;;;;;;;10.35;5.65;;;;;;;;;;5099517;27;20459;-80
2022/01/20 14:43:22;;;;;;;8.75;5.35;;;;;;;;;;5095675;27;20043;-77
2022/01/20 14:45:49;;;;;;;8.80;5.55;;;;;;;;;;5099106;27;20047;-72
2022/01/20 14:48:17;;;;;;;9.18;5.90;;;;;;;;;;5100023;27;20489;-70
2022/01/20 14:50:44;;;;;;;11.05;5.53;;;;;;;;;;5100248;27;20047;-78
2022/01/20 14:53:11;;;;;;;8.90;5.22;;;;;;;;;;5096901;27;20404;-73
2022/01/20 14:55:37;;;;;;;10.27;5.47;;;;;;;;;;5102936;27;20377;-79
2022/01/20 14:58:04;;;;;;;11.93;5.68;;;;;;;;;;5102998;27;20051;-81
2022/01/20 15:00:30;;;;;;;8.50;5.47;;;;;;;;;;5102307;27;20054;-79
2022/01/20 15:02:57;;;;;;;8.05;5.63;;;;;;;;;;5096425;27;20053;-73
2022/01/20 15:05:24;;;;;;;11.57;5.30;;;;;;;;;;5099940;27;20063;-81
2022/01/20 15:07:51;;;;;;;13.75;5.60;;;;;;;;;;5081929;27;20412;-72
2022/01/20 15:10:18;;;;;;;12.27;5.60;;;;;;;;;;5103372;27;20066;-68
2022/01/20 15:12:45;;;;;;;7.22;5.07;;;;;;;;;;5096141;27;20073;-80
2022/01/20 15:15:12;;;;;;;8.55;6.15;;;;;;;;;;5097812;27;20074;-75
2022/01/20 15:17:39;;;;;;;8.05;5.40;;;;;;;;;;5094316;27;20404;-81
2022/01/20 15:20:07;;;;;;;12.45;5.72;;;;;;;;;;5098483;27;20112;-76
2022/01/20 15:22:34;;;;;;;13.65;5.82;;;;;;;;;;5100341;27;20103;-81
2022/01/20 15:25:00;;;;;;;9.52;6.10;;;;;;;;;;5098377;27;20797;-79
2022/01/20 15:27:27;;;;;;;8.68;5.60;;;;;;;;;;5100438;27;20421;-81
2022/01/20 15:29:53;;;;;;;11.52;5.90;;;;;;;;;;5081675;27;20048;-76
2022/01/20 15:32:19;;;;;;;10.57;5.60;;;;;;;;;;5102196;27;20054;-71
2022/01/20 15:34:45;;;;;;;9.27;5.53;;;;;;;;;;5095194;27;20142;-78
2022/01/20 15:37:11;;;;;;;10.60;5.80;;;;;;;;;;5101697;27;20052;-79
2022/01/20 15:39:37;;;;;;;10.77;6.72;;;;;;;;;;5083103;27;20369;-77
2022/01/20 15:42:03;;;;;;;14.52;8.35;;;;;;;;;;5104697;27;20154;-79
2022/01/20 15:44:30;;;;;;;11.60;7.15;;;;;;;;;;5095605;27;20475;-73
2022/01/20 15:46:56;;;;;;;13.30;7.38;;;;;;;;;;5099417;27;20059;-69
2022/01/20 15:49:22;;;;;;;12.52;6.90;;;;;;;;;;5098157;27;20675;-75